Mere Point, Maine
Current Conditions -  °F | °C
As of 8:53 AM on Saturday 25 Oct 2014 (Local Time) from KIWI Reporting Station
Scattered Clouds Scattered Clouds  
Wind Chill: 50°   Ceiling: Unl
Heat Index: 50°   Visibility: 10mi
Dew Point: 39°   Wind: 3mph
Humidity: 66%   Direction: 260°W
Pressure: 29.71"   Gusts: NA
Location:  43.903°N, 69.9809°W
Report Text: KIWI 251253Z AUTO 26003KT 10SM SCT110 10/04 A2971 RMK AO2 SLP059 T01000039
Loading
Personal Weather Stations






























Interactive Weather Map
Tropical Storm Tracking
New forecast layout! Learn more

10-Day Weather Forecast

Advertisements
Track Severe Weather on mobile